createdAt,value
2022-09-02T00:01:35.484Z,15.10
2022-09-02T00:03:38.190Z,14.65
2022-09-02T00:05:42.049Z,14.61
2022-09-02T00:07:45.845Z,14.08
2022-09-02T00:09:48.390Z,14.59
2022-09-02T00:11:53.024Z,14.53
2022-09-02T00:13:57.786Z,14.61
2022-09-02T00:16:00.590Z,14.65
2022-09-02T00:18:04.881Z,14.60
2022-09-02T00:20:11.202Z,14.76
2022-09-02T00:22:13.831Z,14.51
2022-09-02T00:24:17.381Z,14.76
2022-09-02T00:26:20.894Z,14.89
2022-09-02T00:28:23.591Z,14.67
2022-09-02T00:30:26.800Z,14.67
2022-09-02T00:32:29.602Z,14.65
2022-09-02T00:34:33.030Z,14.68
2022-09-02T00:36:35.771Z,14.64
2022-09-02T00:38:39.870Z,14.61
2022-09-02T00:40:50.758Z,14.63
2022-09-02T00:42:53.746Z,14.59
2022-09-02T00:44:56.409Z,14.54
2022-09-02T00:46:58.971Z,14.05
2022-09-02T00:49:28.009Z,14.76
2022-09-02T00:51:38.478Z,14.49
2022-09-02T00:53:44.890Z,14.81
2022-09-02T00:55:50.567Z,14.58
2022-09-02T00:58:09.286Z,13.96
2022-09-02T01:00:34.515Z,14.76
2022-09-02T01:02:40.898Z,14.73
2022-09-02T01:04:46.742Z,14.60
2022-09-02T01:06:49.432Z,14.50
2022-09-02T01:09:03.201Z,14.62
2022-09-02T01:11:06.724Z,14.45
2022-09-02T01:13:19.572Z,14.32
2022-09-02T01:15:22.552Z,14.16
2022-09-02T01:17:26.341Z,14.15
2022-09-02T01:19:39.525Z,14.14
2022-09-02T01:21:53.915Z,13.87
2022-09-02T01:23:56.866Z,13.83
2022-09-02T01:25:59.610Z,13.61
2022-09-02T01:28:08.446Z,13.64
2022-09-02T01:30:15.145Z,13.56
2022-09-02T01:32:18.566Z,12.66
2022-09-02T01:34:21.207Z,13.35
2022-09-02T01:36:23.954Z,12.59
2022-09-02T01:38:26.581Z,13.02
2022-09-02T01:40:31.271Z,13.15
2022-09-02T01:42:33.926Z,12.73
2022-09-02T01:44:44.165Z,13.06
2022-09-02T01:46:47.720Z,13.02
2022-09-02T01:48:51.413Z,12.60
2022-09-02T01:50:59.564Z,12.93
2022-09-02T01:53:03.885Z,12.90
2022-09-02T01:55:08.817Z,12.71
2022-09-02T01:57:12.056Z,12.82
2022-09-02T01:59:18.233Z,12.63
2022-09-02T02:01:21.218Z,12.44
2022-09-02T02:03:25.438Z,12.55
2022-09-02T02:05:30.858Z,12.77
2022-09-02T02:07:45.882Z,12.75
2022-09-02T02:09:49.627Z,12.33
2022-09-02T02:11:52.860Z,12.64
2022-09-02T02:13:55.497Z,12.61
2022-09-02T02:15:58.361Z,11.92
2022-09-02T02:18:01.954Z,12.04
2022-09-02T02:20:07.411Z,12.54
2022-09-02T02:22:11.089Z,11.97
2022-09-02T02:24:14.453Z,12.45
2022-09-02T02:26:17.397Z,12.23
2022-09-02T02:28:20.202Z,12.13
2022-09-02T02:30:24.069Z,12.13
2022-09-02T02:32:27.126Z,12.21
2022-09-02T02:34:29.962Z,11.76
2022-09-02T02:36:32.918Z,12.21
2022-09-02T02:38:38.237Z,11.78
2022-09-02T02:40:42.017Z,12.11
2022-09-02T02:42:44.717Z,11.69
2022-09-02T02:44:47.318Z,11.90
2022-09-02T02:46:50.214Z,12.12
2022-09-02T02:48:52.823Z,11.88
2022-09-02T02:50:55.915Z,11.81
2022-09-02T02:52:58.643Z,11.82
2022-09-02T02:55:02.040Z,12.01
2022-09-02T02:57:06.186Z,11.99
2022-09-02T02:59:08.981Z,11.86
2022-09-02T03:01:11.817Z,11.26
2022-09-02T03:03:44.748Z,11.82
2022-09-02T03:05:50.322Z,11.62
2022-09-02T03:07:54.248Z,12.00
2022-09-02T03:09:58.050Z,12.00
2022-09-02T03:12:00.937Z,12.00
2022-09-02T03:14:05.487Z,12.04
2022-09-02T03:16:09.317Z,11.53
2022-09-02T03:18:11.983Z,11.32
2022-09-02T03:20:16.746Z,11.74
2022-09-02T03:22:22.889Z,11.85
2022-09-02T03:24:26.731Z,11.54
2022-09-02T03:26:29.358Z,11.71
2022-09-02T03:28:33.699Z,11.54
2022-09-02T03:30:41.541Z,11.71
2022-09-02T03:32:44.604Z,10.84
2022-09-02T03:34:47.808Z,11.11
2022-09-02T03:36:50.519Z,10.75
2022-09-02T03:38:54.052Z,11.72
2022-09-02T03:41:03.927Z,11.27
2022-09-02T03:43:06.698Z,11.70
2022-09-02T03:45:11.415Z,11.47
2022-09-02T03:47:15.128Z,11.66
2022-09-02T03:49:17.785Z,11.58
2022-09-02T03:51:22.156Z,11.52
2022-09-02T03:53:25.333Z,11.57
2022-09-02T03:55:33.111Z,10.89
2022-09-02T03:57:37.039Z,11.38
2022-09-02T03:59:39.734Z,11.61
2022-09-02T04:01:42.689Z,11.57
2022-09-02T04:03:45.728Z,11.38
2022-09-02T04:05:50.852Z,11.50
2022-09-02T04:07:53.717Z,11.26
2022-09-02T04:09:56.527Z,11.41
2022-09-02T04:11:59.172Z,11.30
2022-09-02T04:14:02.055Z,10.73
2022-09-02T04:16:15.889Z,10.89
2022-09-02T04:18:19.025Z,11.41
2022-09-02T04:20:21.781Z,11.06
2022-09-02T04:22:24.463Z,11.38
2022-09-02T04:24:27.254Z,11.14
2022-09-02T04:26:30.085Z,10.98
2022-09-02T04:28:34.885Z,11.07
2022-09-02T04:30:42.688Z,11.42
2022-09-02T04:32:46.828Z,11.13
2022-09-02T04:34:49.981Z,11.06
2022-09-02T04:36:54.318Z,11.24
2022-09-02T04:38:58.429Z,11.49
2022-09-02T04:41:15.165Z,11.41
2022-09-02T04:43:18.326Z,10.93
2022-09-02T04:45:24.576Z,11.39
2022-09-02T04:47:29.580Z,11.48
2022-09-02T04:49:33.348Z,11.21
2022-09-02T04:51:36.096Z,11.44
2022-09-02T04:53:41.419Z,11.32
2022-09-02T04:55:44.248Z,11.56
2022-09-02T04:57:49.374Z,11.35
2022-09-02T04:59:52.037Z,11.68
2022-09-02T05:01:56.595Z,11.16
2022-09-02T05:04:09.890Z,11.88
2022-09-02T05:06:27.290Z,11.86
2022-09-02T05:08:33.683Z,11.65
2022-09-02T05:10:39.890Z,11.57
2022-09-02T05:12:43.054Z,11.91
2022-09-02T05:14:48.923Z,11.33
2022-09-02T05:16:56.454Z,11.71
2022-09-02T05:19:24.983Z,11.84
2022-09-02T05:21:34.439Z,11.34
2022-09-02T05:23:37.794Z,11.81
2022-09-02T05:25:43.385Z,12.27
2022-09-02T05:28:12.835Z,12.32
2022-09-02T05:30:15.993Z,12.38
2022-09-02T05:32:23.287Z,12.40
2022-09-02T05:34:28.289Z,12.56
2022-09-02T05:36:34.738Z,12.81
2022-09-02T05:38:37.482Z,12.46
2022-09-02T05:40:40.166Z,12.11
2022-09-02T05:42:45.051Z,13.32
2022-09-02T05:44:51.226Z,13.27
2022-09-02T05:46:56.587Z,13.17
2022-09-02T05:49:19.189Z,13.45
2022-09-02T05:51:26.327Z,13.38
2022-09-02T05:53:30.961Z,13.63
2022-09-02T05:55:35.640Z,13.59
2022-09-02T05:57:39.572Z,14.00
2022-09-02T05:59:44.840Z,14.02
2022-09-02T06:01:51.955Z,14.08
2022-09-02T06:03:55.563Z,13.97
2022-09-02T06:06:04.415Z,14.32
2022-09-02T06:08:11.087Z,14.28
2022-09-02T06:10:26.267Z,13.99
2022-09-02T06:12:31.138Z,14.00
2022-09-02T06:14:35.028Z,14.71
2022-09-02T06:16:38.652Z,14.54
2022-09-02T06:18:47.010Z,14.07
2022-09-02T06:20:50.430Z,14.48
2022-09-02T06:22:53.397Z,15.01
2022-09-02T06:24:56.608Z,15.15
2022-09-02T06:27:02.130Z,14.48
2022-09-02T06:29:05.886Z,14.97
2022-09-02T06:31:16.170Z,15.35
2022-09-02T06:33:20.259Z,14.67
2022-09-02T06:35:25.448Z,15.52
2022-09-02T06:37:30.105Z,15.54
2022-09-02T06:39:33.824Z,14.99
2022-09-02T06:41:39.880Z,15.97
2022-09-02T06:43:46.290Z,15.52
2022-09-02T06:45:54.819Z,15.64
2022-09-02T06:47:58.149Z,16.07
2022-09-02T06:50:01.760Z,16.28
2022-09-02T06:52:08.811Z,16.35
2022-09-02T06:54:17.050Z,16.28
2022-09-02T06:56:23.189Z,16.45
2022-09-02T06:58:25.914Z,15.82
2022-09-02T07:00:29.512Z,16.56
2022-09-02T07:02:32.534Z,16.70
2022-09-02T07:04:57.041Z,16.74
2022-09-02T07:07:00.452Z,16.93
2022-09-02T07:09:09.753Z,17.09
2022-09-02T07:11:23.840Z,17.12
2022-09-02T07:13:29.207Z,17.25
2022-09-02T07:15:32.427Z,17.32
2022-09-02T07:17:35.527Z,16.65
2022-09-02T07:19:40.320Z,17.47
2022-09-02T07:21:43.712Z,17.15
2022-09-02T07:23:47.688Z,17.45
2022-09-02T07:25:51.169Z,17.62
2022-09-02T07:27:55.166Z,17.90
2022-09-02T07:29:59.333Z,17.81
2022-09-02T07:32:03.416Z,18.14
2022-09-02T07:34:07.687Z,18.33
2022-09-02T07:36:12.918Z,18.38
2022-09-02T07:38:17.476Z,18.26
2022-09-02T07:40:20.396Z,18.42
2022-09-02T07:42:24.720Z,17.81
2022-09-02T07:44:28.464Z,18.46
2022-09-02T07:46:32.302Z,18.52
2022-09-02T07:48:36.176Z,18.52
2022-09-02T07:50:39.203Z,18.14
2022-09-02T07:52:45.215Z,18.61
2022-09-02T07:54:47.841Z,18.41
2022-09-02T07:56:50.984Z,18.59
2022-09-02T07:58:55.229Z,18.73
2022-09-02T08:00:58.173Z,18.75
2022-09-02T08:03:01.886Z,19.02
2022-09-02T08:05:10.913Z,19.04
2022-09-02T08:07:13.538Z,18.92
2022-09-02T08:09:16.176Z,19.05
2022-09-02T08:11:42.866Z,19.22
2022-09-02T08:13:45.990Z,18.94
2022-09-02T08:15:50.841Z,19.06
2022-09-02T08:17:53.524Z,19.43
2022-09-02T08:19:56.905Z,19.55
2022-09-02T08:22:08.501Z,19.36
2022-09-02T08:24:11.485Z,19.79
2022-09-02T08:26:14.245Z,19.92
2022-09-02T08:28:16.902Z,19.79
2022-09-02T08:30:19.637Z,19.76
2022-09-02T08:32:22.234Z,19.76
2022-09-02T08:34:25.664Z,19.76
2022-09-02T08:36:28.772Z,19.92
2022-09-02T08:38:31.662Z,20.01
2022-09-02T08:40:42.007Z,19.63
2022-09-02T08:42:52.022Z,20.40
2022-09-02T08:45:06.015Z,20.51
2022-09-02T08:47:16.459Z,20.32
2022-09-02T08:49:31.082Z,20.27
2022-09-02T08:52:04.344Z,20.74
2022-09-02T08:54:32.538Z,20.87
2022-09-02T08:56:35.177Z,20.44
2022-09-02T08:58:43.479Z,20.94
2022-09-02T09:01:30.039Z,21.23
2022-09-02T09:04:12.773Z,21.40
2022-09-02T09:06:31.044Z,21.41
2022-09-02T09:08:47.746Z,21.42
2022-09-02T09:11:18.483Z,21.75
2022-09-02T09:14:03.301Z,21.83
2022-09-02T09:16:37.816Z,21.87
2022-09-02T09:18:55.462Z,21.64
2022-09-02T09:20:58.104Z,20.74
2022-09-02T09:23:09.687Z,20.92
2022-09-02T09:25:16.297Z,21.66
2022-09-02T09:27:23.456Z,21.59
2022-09-02T09:29:26.982Z,21.49
2022-09-02T09:31:32.558Z,21.01
2022-09-02T09:34:17.556Z,21.53
2022-09-02T09:36:20.238Z,21.43
2022-09-02T09:38:36.778Z,21.42
2022-09-02T09:40:39.574Z,21.49
2022-09-02T09:42:45.591Z,21.87
2022-09-02T09:44:51.767Z,21.89
2022-09-02T09:47:14.774Z,21.93
2022-09-02T09:49:27.346Z,21.93
2022-09-02T09:51:29.942Z,21.84
2022-09-02T09:53:52.929Z,21.82
2022-09-02T09:56:05.305Z,21.70
2022-09-02T09:58:10.428Z,21.78
2022-09-02T10:00:35.938Z,21.65
2022-09-02T10:02:51.469Z,22.13
2022-09-02T10:05:11.185Z,22.23
2022-09-02T10:07:14.392Z,22.28
2022-09-02T10:09:20.104Z,22.49
2022-09-02T10:11:27.156Z,22.39
2022-09-02T10:13:33.826Z,22.27
2022-09-02T10:15:50.115Z,22.57
2022-09-02T10:18:22.372Z,22.74
2022-09-02T10:20:32.816Z,22.81
2022-09-02T10:23:27.339Z,22.93
2022-09-02T10:26:06.584Z,23.03
2022-09-02T10:28:41.842Z,23.30
2022-09-02T10:31:13.476Z,23.01
2022-09-02T10:33:37.384Z,23.37
2022-09-02T10:35:43.698Z,23.25
2022-09-02T10:38:11.310Z,22.87
2022-09-02T10:40:49.777Z,23.14
2022-09-02T10:43:10.207Z,23.29
2022-09-02T10:45:24.400Z,23.12
2022-09-02T10:47:39.789Z,23.32
2022-09-02T10:49:56.866Z,23.02
2022-09-02T10:52:51.181Z,22.71
2022-09-02T10:55:09.337Z,22.60
2022-09-02T10:57:38.429Z,22.51
2022-09-02T10:59:52.743Z,22.15
2022-09-02T11:02:38.291Z,22.65
2022-09-02T11:04:59.751Z,22.65
2022-09-02T11:07:04.876Z,22.47
2022-09-02T11:09:37.273Z,22.43
2022-09-02T11:12:12.065Z,22.82
2022-09-02T11:14:25.156Z,22.94
2022-09-02T11:16:46.536Z,22.79
2022-09-02T11:19:22.284Z,23.18
2022-09-02T11:21:39.130Z,23.31
2022-09-02T11:23:50.426Z,23.46
2022-09-02T11:26:05.557Z,23.22
2022-09-02T11:28:46.280Z,23.28
2022-09-02T11:31:21.385Z,22.87
2022-09-02T11:33:51.566Z,23.03
2022-09-02T11:35:54.199Z,22.99
2022-09-02T11:38:09.487Z,23.12
2022-09-02T11:40:35.177Z,23.14
2022-09-02T11:42:57.413Z,23.37
2022-09-02T11:45:20.833Z,23.36
2022-09-02T11:47:26.888Z,23.33
2022-09-02T11:49:51.236Z,23.17
2022-09-02T11:52:17.944Z,22.93
2022-09-02T11:54:23.946Z,23.00
2022-09-02T11:56:37.988Z,22.98
2022-09-02T11:58:46.308Z,23.07
2022-09-02T12:01:00.277Z,23.21
2022-09-02T12:03:37.935Z,23.10
2022-09-02T12:05:39.923Z,23.28
2022-09-02T12:07:51.413Z,23.04
2022-09-02T12:09:56.780Z,23.11
2022-09-02T12:12:00.175Z,22.80
2022-09-02T12:14:04.689Z,22.73
2022-09-02T12:16:19.478Z,22.74
2022-09-02T12:22:16.025Z,22.82
2022-09-02T12:24:21.378Z,22.71
2022-09-02T12:26:48.190Z,22.98
2022-09-02T12:29:19.429Z,22.90
2022-09-02T12:31:41.293Z,23.08
2022-09-02T12:33:49.282Z,23.39
2022-09-02T12:35:53.536Z,23.30
2022-09-02T12:37:58.361Z,22.74
2022-09-02T12:40:14.504Z,23.11
2022-09-02T12:42:33.395Z,23.06
2022-09-02T12:45:03.091Z,23.19
2022-09-02T12:47:26.897Z,23.22
2022-09-02T12:49:55.216Z,23.17
2022-09-02T12:52:02.535Z,23.59
2022-09-02T12:54:06.529Z,23.55
2022-09-02T12:56:23.676Z,23.77
2022-09-02T12:58:29.782Z,23.72
2022-09-02T13:01:07.676Z,23.86
2022-09-02T13:03:25.099Z,23.68
2022-09-02T13:06:01.474Z,23.47
2022-09-02T13:08:31.576Z,23.48
2022-09-02T13:10:57.615Z,23.30
2022-09-02T13:13:33.413Z,23.18
2022-09-02T13:15:49.931Z,23.13
2022-09-02T13:18:39.854Z,23.18
2022-09-02T13:21:00.568Z,23.21
2022-09-02T13:23:58.897Z,23.37
2022-09-02T13:26:58.780Z,23.54
2022-09-02T13:29:51.133Z,23.63
2022-09-02T13:32:19.572Z,23.69
2022-09-02T13:34:22.109Z,23.47
2022-09-02T13:36:30.846Z,23.11
2022-09-02T13:38:36.124Z,23.53
2022-09-02T13:40:40.845Z,23.43
2022-09-02T13:42:58.608Z,23.52
2022-09-02T13:45:16.477Z,23.42
2022-09-02T13:47:20.705Z,23.13
2022-09-02T13:49:28.269Z,22.93
2022-09-02T13:51:30.917Z,22.96
2022-09-02T13:53:45.213Z,22.77
2022-09-02T13:55:58.288Z,22.22
2022-09-02T13:58:23.472Z,22.46
2022-09-02T14:00:38.714Z,22.55
2022-09-02T14:02:41.446Z,22.06
2022-09-02T14:04:44.271Z,22.37
2022-09-02T14:06:48.682Z,21.51
2022-09-02T14:08:58.789Z,22.53
2022-09-02T14:11:07.374Z,22.44
2022-09-02T14:13:11.660Z,22.78
2022-09-02T14:15:23.118Z,22.89
2022-09-02T14:17:27.372Z,22.73
2022-09-02T14:19:29.947Z,22.56
2022-09-02T14:21:32.936Z,22.54
2022-09-02T14:23:38.780Z,22.64
2022-09-02T14:25:59.695Z,23.49
2022-09-02T14:28:11.233Z,23.66
2022-09-02T14:30:26.248Z,23.78
2022-09-02T14:32:29.319Z,23.55
2022-09-02T14:34:38.132Z,23.73
2022-09-02T14:36:40.801Z,24.04
2022-09-02T14:38:46.327Z,24.25
2022-09-02T14:40:48.979Z,23.90
2022-09-02T14:42:57.594Z,23.34
2022-09-02T14:45:03.439Z,23.50
2022-09-02T14:47:07.631Z,23.75
2022-09-02T14:49:19.739Z,23.39
2022-09-02T14:51:22.517Z,23.16
2022-09-02T14:53:25.233Z,22.79
2022-09-02T14:55:55.680Z,22.79
2022-09-02T14:58:03.208Z,22.79
2022-09-02T15:00:11.654Z,22.59
2022-09-02T15:02:32.224Z,22.23
2022-09-02T15:04:35.724Z,22.32
2022-09-02T15:06:38.521Z,22.38
2022-09-02T15:08:41.093Z,21.97
2022-09-02T15:10:45.144Z,22.63
2022-09-02T15:12:54.790Z,22.55
2022-09-02T15:14:58.144Z,22.40
2022-09-02T15:17:01.019Z,22.53
2022-09-02T15:19:03.695Z,22.63
2022-09-02T15:21:07.148Z,22.76
2022-09-02T15:23:09.815Z,22.54
2022-09-02T15:25:12.836Z,22.15
2022-09-02T15:27:15.977Z,22.57
2022-09-02T15:29:26.942Z,22.12
2022-09-02T15:31:31.461Z,22.11
2022-09-02T15:33:34.396Z,22.45
2022-09-02T15:35:37.000Z,22.32
2022-09-02T15:37:40.781Z,22.86
2022-09-02T15:39:44.650Z,22.69
2022-09-02T15:41:47.612Z,22.70
2022-09-02T15:43:50.845Z,23.52
2022-09-02T15:45:53.848Z,23.08
2022-09-02T15:47:59.665Z,23.20
2022-09-02T15:50:02.381Z,23.71
2022-09-02T15:52:06.095Z,23.57
2022-09-02T15:54:11.475Z,23.49
2022-09-02T15:56:22.460Z,23.26
2022-09-02T15:58:25.061Z,23.03
2022-09-02T16:00:28.744Z,23.03
2022-09-02T16:02:31.464Z,22.86
2022-09-02T16:04:35.502Z,22.96
2022-09-02T16:06:43.147Z,22.83
2022-09-02T16:08:45.880Z,22.47
2022-09-02T16:10:49.588Z,22.49
2022-09-02T16:12:52.189Z,22.04
2022-09-02T16:14:54.870Z,22.17
2022-09-02T16:16:57.630Z,22.25
2022-09-02T16:19:00.563Z,22.09
2022-09-02T16:21:04.444Z,22.10
2022-09-02T16:23:07.009Z,21.96
2022-09-02T16:25:09.870Z,21.98
2022-09-02T16:27:13.591Z,21.92
2022-09-02T16:29:17.836Z,21.97
2022-09-02T16:31:22.038Z,22.16
2022-09-02T16:33:24.994Z,21.58
2022-09-02T16:35:27.648Z,22.02
2022-09-02T16:37:30.298Z,22.00
2022-09-02T16:39:32.961Z,22.01
2022-09-02T16:41:45.208Z,22.49
2022-09-02T16:43:47.770Z,22.42
2022-09-02T16:45:52.837Z,22.54
2022-09-02T16:47:55.625Z,22.62
2022-09-02T16:49:58.423Z,22.64
2022-09-02T16:52:01.268Z,22.62
2022-09-02T16:54:05.463Z,22.82
2022-09-02T16:56:13.295Z,22.05
2022-09-02T16:58:15.988Z,22.12
2022-09-02T17:00:18.686Z,22.37
2022-09-02T17:02:21.291Z,22.55
2022-09-02T17:04:24.024Z,22.38
2022-09-02T17:06:28.494Z,22.33
2022-09-02T17:08:31.208Z,22.03
2022-09-02T17:10:35.177Z,22.51
2022-09-02T17:12:42.678Z,21.88
2022-09-02T17:14:46.168Z,21.85
2022-09-02T17:16:51.087Z,22.05
2022-09-02T17:18:54.764Z,22.24
2022-09-02T17:21:28.850Z,22.12
2022-09-02T17:23:31.423Z,22.00
2022-09-02T17:25:33.986Z,21.80
2022-09-02T17:27:37.657Z,21.80
2022-09-02T17:29:49.513Z,21.27
2022-09-02T17:31:52.622Z,21.78
2022-09-02T17:33:57.832Z,21.84
2022-09-02T17:36:01.618Z,21.66
2022-09-02T17:38:04.157Z,21.59
2022-09-02T17:40:32.007Z,21.53
2022-09-02T17:42:34.834Z,21.33
2022-09-02T17:44:39.765Z,21.45
2022-09-02T17:46:44.310Z,21.37
2022-09-02T17:49:12.990Z,21.03
2022-09-02T17:51:09.484Z,20.60
2022-09-02T17:53:12.627Z,20.89
2022-09-02T17:55:15.704Z,20.41
2022-09-02T17:57:42.388Z,20.94
2022-09-02T18:00:26.743Z,20.79
2022-09-02T18:03:08.366Z,20.80
2022-09-02T18:05:28.877Z,20.77
2022-09-02T18:08:05.895Z,20.69
2022-09-02T18:10:08.560Z,20.42
2022-09-02T18:12:11.930Z,20.07
2022-09-02T18:14:36.058Z,20.46
2022-09-02T18:17:07.726Z,20.35
2022-09-02T18:19:56.824Z,20.04
2022-09-02T18:22:09.287Z,19.63
2022-09-02T18:24:32.635Z,20.24
2022-09-02T18:27:13.449Z,20.07
2022-09-02T18:30:07.352Z,20.12
2022-09-02T18:32:58.930Z,20.19
2022-09-02T18:35:22.739Z,20.13
2022-09-02T18:38:08.884Z,20.11
2022-09-02T18:40:35.004Z,20.09
2022-09-02T18:43:20.826Z,20.05
2022-09-02T18:45:32.692Z,20.07
2022-09-02T18:48:13.413Z,19.95
2022-09-02T18:50:47.715Z,19.25
2022-09-02T18:52:49.560Z,19.77
2022-09-02T18:55:16.228Z,19.83
2022-09-02T18:57:18.914Z,19.28
2022-09-02T18:59:47.078Z,19.79
2022-09-02T19:01:57.205Z,19.60
2022-09-02T19:04:00.157Z,19.52
2022-09-02T19:06:08.503Z,19.35
2022-09-02T19:08:32.684Z,19.46
2022-09-02T19:10:35.289Z,19.39
2022-09-02T19:12:38.135Z,19.45
2022-09-02T19:14:41.157Z,19.17
2022-09-02T19:16:43.818Z,18.58
2022-09-02T19:18:47.069Z,19.31
2022-09-02T19:20:49.890Z,19.16
2022-09-02T19:22:57.294Z,18.59
2022-09-02T19:25:10.654Z,19.22
2022-09-02T19:27:21.728Z,19.08
2022-09-02T19:29:25.430Z,19.04
2022-09-02T19:31:31.923Z,19.06
2022-09-02T19:33:36.599Z,18.94
2022-09-02T19:35:49.150Z,18.88
2022-09-02T19:37:54.368Z,18.85
2022-09-02T19:40:01.835Z,18.32
2022-09-02T19:42:06.648Z,18.30
2022-09-02T19:44:12.290Z,18.79
2022-09-02T19:46:41.500Z,18.90
2022-09-02T19:48:39.357Z,18.59
2022-09-02T19:50:44.373Z,18.86
2022-09-02T19:52:52.091Z,18.62
2022-09-02T19:54:54.640Z,18.59
2022-09-02T19:56:57.552Z,18.51
2022-09-02T19:59:00.721Z,18.22
2022-09-02T20:01:05.859Z,18.38
2022-09-02T20:03:09.797Z,18.09
2022-09-02T20:05:14.053Z,18.47
2022-09-02T20:07:16.653Z,18.14
2022-09-02T20:09:19.210Z,18.33
2022-09-02T20:11:25.508Z,18.33
2022-09-02T20:13:30.046Z,18.36
2022-09-02T20:15:38.314Z,18.30
2022-09-02T20:17:41.793Z,17.69
2022-09-02T20:19:45.522Z,17.82
2022-09-02T20:21:49.384Z,17.98
2022-09-02T20:23:53.963Z,18.14
2022-09-02T20:26:05.425Z,18.10
2022-09-02T20:28:35.375Z,17.91
2022-09-02T20:30:42.808Z,17.65
2022-09-02T20:33:16.438Z,17.76
2022-09-02T20:36:02.561Z,17.93
2022-09-02T20:38:32.193Z,17.86
2022-09-02T20:41:10.202Z,17.81
2022-09-02T20:44:13.658Z,17.77
2022-09-02T20:46:59.135Z,17.69
2022-09-02T20:49:47.914Z,17.53
2022-09-02T20:52:08.037Z,17.58
2022-09-02T20:54:36.729Z,17.48
2022-09-02T20:56:54.737Z,17.29
2022-09-02T20:59:27.956Z,17.23
2022-09-02T21:01:37.843Z,17.39
2022-09-02T21:04:24.533Z,17.35
2022-09-02T21:06:33.519Z,17.32
2022-09-02T21:08:47.065Z,17.08
2022-09-02T21:10:52.853Z,16.40
2022-09-02T21:13:54.023Z,17.22
2022-09-02T21:16:00.280Z,16.61
2022-09-02T21:18:20.619Z,16.72
2022-09-02T21:20:50.341Z,17.08
2022-09-02T21:23:00.763Z,16.84
2022-09-02T21:25:22.360Z,16.67
2022-09-02T21:27:33.707Z,16.93
2022-09-02T21:29:48.809Z,16.91
2022-09-02T21:32:23.953Z,16.68
2022-09-02T21:34:39.504Z,16.61
2022-09-02T21:36:42.870Z,16.53
2022-09-02T21:38:46.272Z,16.58
2022-09-02T21:41:13.017Z,16.74
2022-09-02T21:44:12.972Z,16.63
2022-09-02T21:46:38.732Z,16.66
2022-09-02T21:49:32.654Z,16.58
2022-09-02T21:51:49.935Z,16.21
2022-09-02T21:54:00.798Z,15.45
2022-09-02T21:56:37.187Z,16.50
2022-09-02T21:59:19.527Z,16.44
2022-09-02T22:01:56.060Z,16.42
2022-09-02T22:04:11.309Z,15.80
2022-09-02T22:06:33.414Z,16.09
2022-09-02T22:08:56.572Z,16.33
2022-09-02T22:11:09.798Z,16.36
2022-09-02T22:13:12.560Z,16.12
2022-09-02T22:15:42.568Z,16.32
2022-09-02T22:17:56.322Z,16.02
2022-09-02T22:20:02.692Z,16.08
2022-09-02T22:22:14.235Z,16.19
2022-09-02T22:24:20.425Z,16.17
2022-09-02T22:26:52.885Z,16.03
2022-09-02T22:29:04.021Z,15.38
2022-09-02T22:31:12.415Z,15.81
2022-09-02T22:33:19.762Z,15.81
2022-09-02T22:35:31.625Z,16.06
2022-09-02T22:38:10.479Z,15.21
2022-09-02T22:40:20.293Z,16.02
2022-09-02T22:42:38.546Z,15.69
2022-09-02T22:45:07.667Z,15.84
2022-09-02T22:47:29.028Z,15.92
2022-09-02T22:49:56.378Z,15.76
2022-09-02T22:52:34.234Z,15.70
2022-09-02T22:54:37.449Z,15.74
2022-09-02T22:57:20.397Z,15.47
2022-09-02T22:59:53.844Z,15.50
2022-09-02T23:02:27.793Z,15.75
2022-09-02T23:05:03.742Z,15.61
2022-09-02T23:07:07.549Z,15.40
2022-09-02T23:09:11.380Z,15.57
2022-09-02T23:11:29.580Z,15.74
2022-09-02T23:14:03.404Z,15.71
2022-09-02T23:16:35.301Z,15.65
2022-09-02T23:19:04.122Z,15.60
2022-09-02T23:21:39.068Z,15.39
2022-09-02T23:24:25.674Z,15.52
2022-09-02T23:26:47.091Z,15.31
2022-09-02T23:29:23.332Z,15.13
2022-09-02T23:31:50.812Z,15.45
2022-09-02T23:34:07.129Z,15.43
2022-09-02T23:36:36.060Z,15.23
2022-09-02T23:39:21.738Z,15.18
2022-09-02T23:41:25.077Z,15.16
2022-09-02T23:43:27.753Z,14.66
2022-09-02T23:45:33.928Z,15.02
2022-09-02T23:48:17.256Z,15.20
2022-09-02T23:50:38.322Z,15.27
2022-09-02T23:52:52.966Z,15.14
2022-09-02T23:55:01.948Z,15.27
2022-09-02T23:57:25.024Z,15.24
